Afton, Michigan
Current Conditions -  °F | °C
As of 3:18 AM on Monday 26 Jan 2015 (Local Time) from KSLH Reporting Station
Clear Clear  
Wind Chill: -23°   Ceiling: Unl
Heat Index: -23°   Visibility: 10mi
Dew Point: -26°   Wind: 0mph
Humidity: 77%   Direction: NA
Pressure: 30.05"   Gusts: NA
Location:  45.36°N, 84.47°W
Report Text: KSLH 260818Z AUTO 00000KT 10SM CLR M22/M26 A3005 RMK AO2 T12281258
Loading
Personal Weather Stations






























Interactive Weather Map New forecast layout! Learn more

10-Day Weather Forecast

Advertisements
Track Severe Weather on mobile